sensor_id;sensor_type;location;lat;lon;timestamp;temperature;humidity
770;DHT22;368;48.698;9.116;2023-08-12T00:00:42;18.20;99.90
770;DHT22;368;48.698;9.116;2023-08-12T00:03:09;18.10;99.90
770;DHT22;368;48.698;9.116;2023-08-12T00:05:36;18.10;99.90
770;DHT22;368;48.698;9.116;2023-08-12T00:08:05;18.10;99.90
770;DHT22;368;48.698;9.116;2023-08-12T00:10:32;18.00;99.90
770;DHT22;368;48.698;9.116;2023-08-12T00:12:59;18.20;99.90
770;DHT22;368;48.698;9.116;2023-08-12T00:15:26;18.10;99.90
770;DHT22;368;48.698;9.116;2023-08-12T00:17:54;18.10;99.90
770;DHT22;368;48.698;9.116;2023-08-12T00:20:21;18.10;99.90
770;DHT22;368;48.698;9.116;2023-08-12T00:22:47;18.00;99.90
770;DHT22;368;48.698;9.116;2023-08-12T00:25:15;17.80;99.90
770;DHT22;368;48.698;9.116;2023-08-12T00:27:41;17.80;99.90
770;DHT22;368;48.698;9.116;2023-08-12T00:30:09;17.80;99.90
770;DHT22;368;48.698;9.116;2023-08-12T00:32:35;17.80;99.90
770;DHT22;368;48.698;9.116;2023-08-12T00:35:04;17.70;99.90
770;DHT22;368;48.698;9.116;2023-08-12T00:37:31;17.90;99.90
770;DHT22;368;48.698;9.116;2023-08-12T00:39:58;17.90;99.90
770;DHT22;368;48.698;9.116;2023-08-12T00:42:25;17.80;99.90
770;DHT22;368;48.698;9.116;2023-08-12T00:44:52;17.60;99.90
770;DHT22;368;48.698;9.116;2023-08-12T00:47:19;17.60;99.90
770;DHT22;368;48.698;9.116;2023-08-12T00:49:45;17.70;99.90
770;DHT22;368;48.698;9.116;2023-08-12T00:52:14;17.70;99.90
770;DHT22;368;48.698;9.116;2023-08-12T00:54:42;17.70;99.90
770;DHT22;368;48.698;9.116;2023-08-12T00:57:09;17.60;99.90
770;DHT22;368;48.698;9.116;2023-08-12T00:59:36;17.60;99.90
770;DHT22;368;48.698;9.116;2023-08-12T01:02:04;17.50;99.90
770;DHT22;368;48.698;9.116;2023-08-12T01:04:31;17.50;99.90
770;DHT22;368;48.698;9.116;2023-08-12T01:06:59;17.50;99.90
770;DHT22;368;48.698;9.116;2023-08-12T01:09:27;17.50;99.90
770;DHT22;368;48.698;9.116;2023-08-12T01:11:59;17.40;99.90
770;DHT22;368;48.698;9.116;2023-08-12T01:14:34;17.40;99.90
770;DHT22;368;48.698;9.116;2023-08-12T01:17:05;17.40;99.90
770;DHT22;368;48.698;9.116;2023-08-12T01:19:34;17.40;99.90
770;DHT22;368;48.698;9.116;2023-08-12T01:22:02;17.40;99.90
770;DHT22;368;48.698;9.116;2023-08-12T01:24:35;17.40;99.90
770;DHT22;368;48.698;9.116;2023-08-12T01:27:03;17.30;99.90
770;DHT22;368;48.698;9.116;2023-08-12T01:29:30;17.30;99.90
770;DHT22;368;48.698;9.116;2023-08-12T01:32:03;17.20;99.90
770;DHT22;368;48.698;9.116;2023-08-12T01:34:44;17.10;99.90
770;DHT22;368;48.698;9.116;2023-08-12T01:37:14;17.10;99.90
770;DHT22;368;48.698;9.116;2023-08-12T01:39:45;17.20;99.90
770;DHT22;368;48.698;9.116;2023-08-12T01:42:13;17.30;99.90
770;DHT22;368;48.698;9.116;2023-08-12T01:44:41;17.30;99.90
770;DHT22;368;48.698;9.116;2023-08-12T01:47:09;17.30;99.90
770;DHT22;368;48.698;9.116;2023-08-12T01:49:36;17.40;99.90
770;DHT22;368;48.698;9.116;2023-08-12T01:52:03;17.40;99.90
770;DHT22;368;48.698;9.116;2023-08-12T01:54:29;17.50;99.90
770;DHT22;368;48.698;9.116;2023-08-12T01:57:00;17.40;99.90
770;DHT22;368;48.698;9.116;2023-08-12T01:59:27;17.40;99.90
770;DHT22;368;48.698;9.116;2023-08-12T02:01:53;17.40;99.90
770;DHT22;368;48.698;9.116;2023-08-12T02:04:20;17.40;99.90
770;DHT22;368;48.698;9.116;2023-08-12T02:06:47;17.50;99.90
770;DHT22;368;48.698;9.116;2023-08-12T02:09:15;17.50;99.90
770;DHT22;368;48.698;9.116;2023-08-12T02:11:41;17.50;99.90
770;DHT22;368;48.698;9.116;2023-08-12T02:14:10;17.50;99.90
770;DHT22;368;48.698;9.116;2023-08-12T02:16:37;17.50;99.90
770;DHT22;368;48.698;9.116;2023-08-12T02:19:04;17.60;99.90
770;DHT22;368;48.698;9.116;2023-08-12T02:21:31;17.60;99.90
770;DHT22;368;48.698;9.116;2023-08-12T02:23:58;17.70;99.90
770;DHT22;368;48.698;9.116;2023-08-12T02:26:25;17.80;99.90
770;DHT22;368;48.698;9.116;2023-08-12T02:28:51;17.80;99.90
770;DHT22;368;48.698;9.116;2023-08-12T02:31:20;17.80;99.90
770;DHT22;368;48.698;9.116;2023-08-12T02:33:47;17.80;99.90
770;DHT22;368;48.698;9.116;2023-08-12T02:36:15;17.70;99.90
770;DHT22;368;48.698;9.116;2023-08-12T02:38:42;17.70;99.90
770;DHT22;368;48.698;9.116;2023-08-12T02:41:08;17.70;99.90
770;DHT22;368;48.698;9.116;2023-08-12T02:43:35;17.70;99.90
770;DHT22;368;48.698;9.116;2023-08-12T02:46:02;17.70;99.90
770;DHT22;368;48.698;9.116;2023-08-12T02:48:31;17.70;99.90
770;DHT22;368;48.698;9.116;2023-08-12T02:50:58;17.70;99.90
770;DHT22;368;48.698;9.116;2023-08-12T02:53:24;17.70;99.90
770;DHT22;368;48.698;9.116;2023-08-12T02:55:51;17.70;99.90
770;DHT22;368;48.698;9.116;2023-08-12T02:58:18;17.70;99.90
770;DHT22;368;48.698;9.116;2023-08-12T03:00:45;17.90;99.90
770;DHT22;368;48.698;9.116;2023-08-12T03:03:12;17.80;99.90
770;DHT22;368;48.698;9.116;2023-08-12T03:05:40;17.80;99.90
770;DHT22;368;48.698;9.116;2023-08-12T03:08:06;17.70;99.90
770;DHT22;368;48.698;9.116;2023-08-12T03:10:33;17.70;99.90
770;DHT22;368;48.698;9.116;2023-08-12T03:13:00;17.70;99.90
770;DHT22;368;48.698;9.116;2023-08-12T03:15:27;17.70;99.90
770;DHT22;368;48.698;9.116;2023-08-12T03:17:55;17.80;99.90
770;DHT22;368;48.698;9.116;2023-08-12T03:20:22;17.90;99.90
770;DHT22;368;48.698;9.116;2023-08-12T03:22:50;17.80;99.90
770;DHT22;368;48.698;9.116;2023-08-12T03:25:17;17.80;99.90
770;DHT22;368;48.698;9.116;2023-08-12T03:27:45;17.90;99.90
770;DHT22;368;48.698;9.116;2023-08-12T03:30:12;17.90;99.90
770;DHT22;368;48.698;9.116;2023-08-12T03:32:39;17.90;99.90
770;DHT22;368;48.698;9.116;2023-08-12T03:35:06;17.90;99.90
770;DHT22;368;48.698;9.116;2023-08-12T03:37:32;18.00;99.90
770;DHT22;368;48.698;9.116;2023-08-12T03:40:01;18.00;99.90
770;DHT22;368;48.698;9.116;2023-08-12T03:42:28;18.00;99.90
770;DHT22;368;48.698;9.116;2023-08-12T03:44:55;18.10;99.90
770;DHT22;368;48.698;9.116;2023-08-12T03:47:22;18.20;99.90
770;DHT22;368;48.698;9.116;2023-08-12T03:49:50;18.30;99.90
770;DHT22;368;48.698;9.116;2023-08-12T03:52:16;18.30;99.90
770;DHT22;368;48.698;9.116;2023-08-12T03:54:43;18.20;99.90
770;DHT22;368;48.698;9.116;2023-08-12T03:57:11;18.30;99.90
770;DHT22;368;48.698;9.116;2023-08-12T03:59:38;18.10;99.90
770;DHT22;368;48.698;9.116;2023-08-12T04:02:05;18.10;99.90
770;DHT22;368;48.698;9.116;2023-08-12T04:04:32;18.00;99.90
770;DHT22;368;48.698;9.116;2023-08-12T04:06:59;18.10;99.90
770;DHT22;368;48.698;9.116;2023-08-12T04:09:26;18.20;99.90
770;DHT22;368;48.698;9.116;2023-08-12T04:11:53;18.20;99.90
770;DHT22;368;48.698;9.116;2023-08-12T04:14:21;18.20;99.90
770;DHT22;368;48.698;9.116;2023-08-12T04:16:48;18.30;99.90
770;DHT22;368;48.698;9.116;2023-08-12T04:19:14;18.50;99.90
770;DHT22;368;48.698;9.116;2023-08-12T04:21:41;18.50;99.90
770;DHT22;368;48.698;9.116;2023-08-12T04:24:11;18.70;99.90
770;DHT22;368;48.698;9.116;2023-08-12T04:26:38;18.70;99.90
770;DHT22;368;48.698;9.116;2023-08-12T04:29:06;18.80;99.90
770;DHT22;368;48.698;9.116;2023-08-12T04:31:34;18.70;99.90
770;DHT22;368;48.698;9.116;2023-08-12T04:34:01;18.70;99.90
770;DHT22;368;48.698;9.116;2023-08-12T04:36:29;18.60;99.90
770;DHT22;368;48.698;9.116;2023-08-12T04:38:56;18.70;99.90
770;DHT22;368;48.698;9.116;2023-08-12T04:41:23;18.80;99.90
770;DHT22;368;48.698;9.116;2023-08-12T04:43:50;18.80;99.90
770;DHT22;368;48.698;9.116;2023-08-12T04:46:17;18.90;99.90
770;DHT22;368;48.698;9.116;2023-08-12T04:48:45;19.10;99.90
770;DHT22;368;48.698;9.116;2023-08-12T04:51:12;18.90;99.90
770;DHT22;368;48.698;9.116;2023-08-12T04:53:40;18.90;99.90
770;DHT22;368;48.698;9.116;2023-08-12T04:56:06;18.80;99.90
770;DHT22;368;48.698;9.116;2023-08-12T04:58:33;18.80;99.90
770;DHT22;368;48.698;9.116;2023-08-12T05:01:00;19.00;99.90
770;DHT22;368;48.698;9.116;2023-08-12T05:03:28;19.10;99.90
770;DHT22;368;48.698;9.116;2023-08-12T05:05:56;19.20;99.90
770;DHT22;368;48.698;9.116;2023-08-12T05:08:23;19.40;99.90
770;DHT22;368;48.698;9.116;2023-08-12T05:10:50;19.50;99.90
770;DHT22;368;48.698;9.116;2023-08-12T05:13:17;19.50;99.90
770;DHT22;368;48.698;9.116;2023-08-12T05:15:45;19.60;99.90
770;DHT22;368;48.698;9.116;2023-08-12T05:18:13;19.50;99.90
770;DHT22;368;48.698;9.116;2023-08-12T05:20:40;19.50;99.90
770;DHT22;368;48.698;9.116;2023-08-12T05:23:08;19.50;99.90
770;DHT22;368;48.698;9.116;2023-08-12T05:25:35;19.60;99.90
770;DHT22;368;48.698;9.116;2023-08-12T05:28:03;19.90;99.90
770;DHT22;368;48.698;9.116;2023-08-12T05:30:29;20.10;99.90
770;DHT22;368;48.698;9.116;2023-08-12T05:32:56;19.90;99.90
770;DHT22;368;48.698;9.116;2023-08-12T05:35:24;19.70;99.90
770;DHT22;368;48.698;9.116;2023-08-12T05:37:50;19.60;99.90
770;DHT22;368;48.698;9.116;2023-08-12T05:40:19;19.60;99.90
770;DHT22;368;48.698;9.116;2023-08-12T05:42:45;19.60;99.90
770;DHT22;368;48.698;9.116;2023-08-12T05:45:12;19.60;99.90
770;DHT22;368;48.698;9.116;2023-08-12T05:47:39;19.70;99.90
770;DHT22;368;48.698;9.116;2023-08-12T05:50:07;19.90;99.90
770;DHT22;368;48.698;9.116;2023-08-12T05:52:33;19.90;99.90
770;DHT22;368;48.698;9.116;2023-08-12T05:55:00;20.00;99.90
770;DHT22;368;48.698;9.116;2023-08-12T05:57:28;20.20;99.90
770;DHT22;368;48.698;9.116;2023-08-12T05:59:55;20.20;99.90
770;DHT22;368;48.698;9.116;2023-08-12T06:02:22;20.10;99.90
770;DHT22;368;48.698;9.116;2023-08-12T06:04:49;19.90;99.90
770;DHT22;368;48.698;9.116;2023-08-12T06:07:16;20.40;99.90
770;DHT22;368;48.698;9.116;2023-08-12T06:09:43;20.10;99.90
770;DHT22;368;48.698;9.116;2023-08-12T06:12:10;20.20;99.90
770;DHT22;368;48.698;9.116;2023-08-12T06:14:38;20.40;99.90
770;DHT22;368;48.698;9.116;2023-08-12T06:17:05;20.70;99.90
770;DHT22;368;48.698;9.116;2023-08-12T06:19:32;20.70;99.90
770;DHT22;368;48.698;9.116;2023-08-12T06:21:59;20.50;99.90
770;DHT22;368;48.698;9.116;2023-08-12T06:24:26;20.60;99.90
770;DHT22;368;48.698;9.116;2023-08-12T06:26:53;20.50;99.90
770;DHT22;368;48.698;9.116;2023-08-12T06:29:19;20.20;99.90
770;DHT22;368;48.698;9.116;2023-08-12T06:31:47;20.50;99.90
770;DHT22;368;48.698;9.116;2023-08-12T06:34:14;20.90;99.90
770;DHT22;368;48.698;9.116;2023-08-12T06:36:41;21.60;99.90
770;DHT22;368;48.698;9.116;2023-08-12T06:39:08;22.30;99.90
770;DHT22;368;48.698;9.116;2023-08-12T06:41:35;22.40;99.90
770;DHT22;368;48.698;9.116;2023-08-12T06:44:01;22.30;99.90
770;DHT22;368;48.698;9.116;2023-08-12T06:46:29;22.90;99.90
770;DHT22;368;48.698;9.116;2023-08-12T06:48:59;23.50;99.90
770;DHT22;368;48.698;9.116;2023-08-12T06:51:25;24.50;99.90
770;DHT22;368;48.698;9.116;2023-08-12T06:53:52;24.70;99.90
770;DHT22;368;48.698;9.116;2023-08-12T06:56:19;25.50;99.90
770;DHT22;368;48.698;9.116;2023-08-12T06:58:46;25.50;99.90
770;DHT22;368;48.698;9.116;2023-08-12T07:01:13;25.60;99.90
770;DHT22;368;48.698;9.116;2023-08-12T07:03:40;25.60;99.90
770;DHT22;368;48.698;9.116;2023-08-12T07:06:08;26.00;99.90
770;DHT22;368;48.698;9.116;2023-08-12T07:08:35;26.20;99.10
770;DHT22;368;48.698;9.116;2023-08-12T07:11:01;26.50;98.90
770;DHT22;368;48.698;9.116;2023-08-12T07:13:30;26.50;98.80
770;DHT22;368;48.698;9.116;2023-08-12T07:15:56;26.40;98.70
770;DHT22;368;48.698;9.116;2023-08-12T07:18:23;26.00;99.40
770;DHT22;368;48.698;9.116;2023-08-12T07:20:50;26.10;99.90
770;DHT22;368;48.698;9.116;2023-08-12T07:23:18;26.40;99.40
770;DHT22;368;48.698;9.116;2023-08-12T07:25:46;26.70;99.00
770;DHT22;368;48.698;9.116;2023-08-12T07:28:12;26.80;98.10
770;DHT22;368;48.698;9.116;2023-08-12T07:30:39;26.70;99.10
770;DHT22;368;48.698;9.116;2023-08-12T07:33:07;27.50;98.10
770;DHT22;368;48.698;9.116;2023-08-12T07:35:34;27.50;97.10
770;DHT22;368;48.698;9.116;2023-08-12T07:38:00;27.80;96.70
770;DHT22;368;48.698;9.116;2023-08-12T07:40:28;28.10;96.00
770;DHT22;368;48.698;9.116;2023-08-12T07:42:55;28.30;96.30
770;DHT22;368;48.698;9.116;2023-08-12T07:45:22;28.30;95.60
770;DHT22;368;48.698;9.116;2023-08-12T07:47:49;27.60;96.00
770;DHT22;368;48.698;9.116;2023-08-12T07:50:16;26.90;97.50
770;DHT22;368;48.698;9.116;2023-08-12T07:52:43;26.90;97.70
770;DHT22;368;48.698;9.116;2023-08-12T07:55:09;27.70;96.80
770;DHT22;368;48.698;9.116;2023-08-12T07:57:39;28.20;95.60
770;DHT22;368;48.698;9.116;2023-08-12T08:00:07;27.80;95.60
770;DHT22;368;48.698;9.116;2023-08-12T08:02:35;27.90;96.10
770;DHT22;368;48.698;9.116;2023-08-12T08:05:02;28.80;94.90
770;DHT22;368;48.698;9.116;2023-08-12T08:07:29;28.70;94.30
770;DHT22;368;48.698;9.116;2023-08-12T08:09:56;29.00;93.80
770;DHT22;368;48.698;9.116;2023-08-12T08:12:23;30.00;92.60
770;DHT22;368;48.698;9.116;2023-08-12T08:14:51;30.40;91.90
770;DHT22;368;48.698;9.116;2023-08-12T08:17:18;30.20;91.00
770;DHT22;368;48.698;9.116;2023-08-12T08:19:44;29.60;92.10
770;DHT22;368;48.698;9.116;2023-08-12T08:22:11;30.00;90.60
770;DHT22;368;48.698;9.116;2023-08-12T08:24:38;30.30;90.70
770;DHT22;368;48.698;9.116;2023-08-12T08:27:05;30.60;90.20
770;DHT22;368;48.698;9.116;2023-08-12T08:29:32;31.20;88.90
770;DHT22;368;48.698;9.116;2023-08-12T08:32:01;31.70;87.20
770;DHT22;368;48.698;9.116;2023-08-12T08:34:27;32.00;87.00
770;DHT22;368;48.698;9.116;2023-08-12T08:36:54;32.20;83.10
770;DHT22;368;48.698;9.116;2023-08-12T08:39:21;31.70;85.20
770;DHT22;368;48.698;9.116;2023-08-12T08:41:48;31.60;82.60
770;DHT22;368;48.698;9.116;2023-08-12T08:44:15;32.50;79.40
770;DHT22;368;48.698;9.116;2023-08-12T08:46:43;32.50;78.00
770;DHT22;368;48.698;9.116;2023-08-12T08:49:15;32.60;77.30
770;DHT22;368;48.698;9.116;2023-08-12T08:51:42;32.70;77.10
770;DHT22;368;48.698;9.116;2023-08-12T08:54:11;32.90;77.10
770;DHT22;368;48.698;9.116;2023-08-12T08:56:38;32.50;77.00
770;DHT22;368;48.698;9.116;2023-08-12T08:59:05;33.20;76.20
770;DHT22;368;48.698;9.116;2023-08-12T09:01:32;33.60;74.10
770;DHT22;368;48.698;9.116;2023-08-12T09:04:03;33.40;72.90
770;DHT22;368;48.698;9.116;2023-08-12T09:06:32;33.70;71.40
770;DHT22;368;48.698;9.116;2023-08-12T09:09:00;33.70;71.40
770;DHT22;368;48.698;9.116;2023-08-12T09:11:28;33.90;68.40
770;DHT22;368;48.698;9.116;2023-08-12T09:13:54;34.10;68.00
770;DHT22;368;48.698;9.116;2023-08-12T09:16:21;33.90;66.30
770;DHT22;368;48.698;9.116;2023-08-12T09:18:54;33.30;69.40
770;DHT22;368;48.698;9.116;2023-08-12T09:21:21;32.60;70.70
770;DHT22;368;48.698;9.116;2023-08-12T09:23:50;31.60;73.90
770;DHT22;368;48.698;9.116;2023-08-12T09:26:17;32.70;74.50
770;DHT22;368;48.698;9.116;2023-08-12T09:28:44;33.30;70.10
770;DHT22;368;48.698;9.116;2023-08-12T09:31:22;32.70;69.20
770;DHT22;368;48.698;9.116;2023-08-12T09:33:51;31.90;72.20
770;DHT22;368;48.698;9.116;2023-08-12T09:36:18;32.00;71.20
770;DHT22;368;48.698;9.116;2023-08-12T09:38:45;31.40;72.00
770;DHT22;368;48.698;9.116;2023-08-12T09:41:13;31.80;71.80
770;DHT22;368;48.698;9.116;2023-08-12T09:43:41;32.60;71.50
770;DHT22;368;48.698;9.116;2023-08-12T09:46:11;34.10;69.90
770;DHT22;368;48.698;9.116;2023-08-12T09:48:39;34.00;66.40
770;DHT22;368;48.698;9.116;2023-08-12T09:51:06;32.30;70.10
770;DHT22;368;48.698;9.116;2023-08-12T09:53:33;31.80;74.00
770;DHT22;368;48.698;9.116;2023-08-12T09:56:06;31.30;75.80
770;DHT22;368;48.698;9.116;2023-08-12T09:58:35;30.90;77.20
770;DHT22;368;48.698;9.116;2023-08-12T10:01:02;30.60;76.00
770;DHT22;368;48.698;9.116;2023-08-12T10:03:30;30.50;78.00
770;DHT22;368;48.698;9.116;2023-08-12T10:05:59;30.50;79.30
770;DHT22;368;48.698;9.116;2023-08-12T10:08:27;30.50;79.30
770;DHT22;368;48.698;9.116;2023-08-12T10:10:54;30.30;79.40
770;DHT22;368;48.698;9.116;2023-08-12T10:13:21;30.10;81.10
770;DHT22;368;48.698;9.116;2023-08-12T10:15:50;29.90;83.20
770;DHT22;368;48.698;9.116;2023-08-12T10:18:18;29.90;83.30
770;DHT22;368;48.698;9.116;2023-08-12T10:20:45;29.70;83.50
770;DHT22;368;48.698;9.116;2023-08-12T10:23:15;29.80;84.20
770;DHT22;368;48.698;9.116;2023-08-12T10:25:43;30.10;84.50
770;DHT22;368;48.698;9.116;2023-08-12T10:28:11;30.30;83.90
770;DHT22;368;48.698;9.116;2023-08-12T10:30:40;30.50;81.60
770;DHT22;368;48.698;9.116;2023-08-12T10:33:09;30.70;80.60
770;DHT22;368;48.698;9.116;2023-08-12T10:35:44;30.80;81.00
770;DHT22;368;48.698;9.116;2023-08-12T10:38:13;30.40;81.40
770;DHT22;368;48.698;9.116;2023-08-12T10:40:41;30.10;81.60
770;DHT22;368;48.698;9.116;2023-08-12T10:43:08;29.90;82.50
770;DHT22;368;48.698;9.116;2023-08-12T10:45:42;30.10;83.30
770;DHT22;368;48.698;9.116;2023-08-12T10:48:16;30.20;82.10
770;DHT22;368;48.698;9.116;2023-08-12T10:50:44;30.50;80.90
770;DHT22;368;48.698;9.116;2023-08-12T10:53:23;30.30;80.50
770;DHT22;368;48.698;9.116;2023-08-12T10:55:55;30.30;82.10
770;DHT22;368;48.698;9.116;2023-08-12T10:58:27;31.00;80.30
770;DHT22;368;48.698;9.116;2023-08-12T11:00:55;30.70;81.00
770;DHT22;368;48.698;9.116;2023-08-12T11:03:24;30.70;79.70
770;DHT22;368;48.698;9.116;2023-08-12T11:05:53;30.70;80.60
770;DHT22;368;48.698;9.116;2023-08-12T11:08:25;30.70;81.90
770;DHT22;368;48.698;9.116;2023-08-12T11:10:55;30.30;80.00
770;DHT22;368;48.698;9.116;2023-08-12T11:13:22;30.20;81.40
770;DHT22;368;48.698;9.116;2023-08-12T11:15:50;32.00;79.10
770;DHT22;368;48.698;9.116;2023-08-12T11:18:17;33.70;75.00
770;DHT22;368;48.698;9.116;2023-08-12T11:20:47;32.90;74.50
770;DHT22;368;48.698;9.116;2023-08-12T11:23:14;32.30;76.10
770;DHT22;368;48.698;9.116;2023-08-12T11:25:43;32.50;77.40
770;DHT22;368;48.698;9.116;2023-08-12T11:28:10;32.40;77.80
770;DHT22;368;48.698;9.116;2023-08-12T11:30:41;32.00;77.40
770;DHT22;368;48.698;9.116;2023-08-12T11:33:09;32.30;76.90
770;DHT22;368;48.698;9.116;2023-08-12T11:35:37;33.20;76.40
770;DHT22;368;48.698;9.116;2023-08-12T11:38:06;34.50;72.40
770;DHT22;368;48.698;9.116;2023-08-12T11:40:34;34.30;71.80
770;DHT22;368;48.698;9.116;2023-08-12T11:43:02;32.90;73.10
770;DHT22;368;48.698;9.116;2023-08-12T11:45:29;32.10;74.50
770;DHT22;368;48.698;9.116;2023-08-12T11:47:56;33.10;74.20
770;DHT22;368;48.698;9.116;2023-08-12T11:50:25;33.60;72.20
770;DHT22;368;48.698;9.116;2023-08-12T11:52:52;34.80;70.10
770;DHT22;368;48.698;9.116;2023-08-12T11:55:21;34.70;67.10
770;DHT22;368;48.698;9.116;2023-08-12T11:57:50;34.90;67.40
770;DHT22;368;48.698;9.116;2023-08-12T12:00:17;33.30;67.50
770;DHT22;368;48.698;9.116;2023-08-12T12:02:48;32.10;72.40
770;DHT22;368;48.698;9.116;2023-08-12T12:05:16;31.30;74.20
770;DHT22;368;48.698;9.116;2023-08-12T12:07:42;30.80;76.30
770;DHT22;368;48.698;9.116;2023-08-12T12:10:13;30.30;77.50
770;DHT22;368;48.698;9.116;2023-08-12T12:12:44;29.70;79.10
770;DHT22;368;48.698;9.116;2023-08-12T12:15:13;29.30;81.00
770;DHT22;368;48.698;9.116;2023-08-12T12:17:40;28.90;82.90
770;DHT22;368;48.698;9.116;2023-08-12T12:20:08;28.60;90.40
770;DHT22;368;48.698;9.116;2023-08-12T12:22:37;28.20;91.10
770;DHT22;368;48.698;9.116;2023-08-12T12:25:09;28.10;91.70
770;DHT22;368;48.698;9.116;2023-08-12T12:27:38;27.80;93.00
770;DHT22;368;48.698;9.116;2023-08-12T12:30:08;27.80;94.80
770;DHT22;368;48.698;9.116;2023-08-12T12:32:35;26.60;97.70
770;DHT22;368;48.698;9.116;2023-08-12T12:35:03;26.10;99.90
770;DHT22;368;48.698;9.116;2023-08-12T12:37:31;25.30;99.90
770;DHT22;368;48.698;9.116;2023-08-12T12:39:58;24.80;99.90
770;DHT22;368;48.698;9.116;2023-08-12T12:42:25;24.30;99.90
770;DHT22;368;48.698;9.116;2023-08-12T12:44:52;23.70;99.90
770;DHT22;368;48.698;9.116;2023-08-12T12:47:20;23.30;99.90
770;DHT22;368;48.698;9.116;2023-08-12T12:49:47;22.90;99.90
770;DHT22;368;48.698;9.116;2023-08-12T12:52:13;22.90;99.90
770;DHT22;368;48.698;9.116;2023-08-12T12:54:40;22.80;99.90
770;DHT22;368;48.698;9.116;2023-08-12T12:57:07;22.90;99.90
770;DHT22;368;48.698;9.116;2023-08-12T12:59:34;22.90;99.90
770;DHT22;368;48.698;9.116;2023-08-12T13:02:01;23.00;99.90
770;DHT22;368;48.698;9.116;2023-08-12T13:04:29;23.20;99.90
770;DHT22;368;48.698;9.116;2023-08-12T13:06:56;23.20;99.90
770;DHT22;368;48.698;9.116;2023-08-12T13:09:22;23.30;99.90
770;DHT22;368;48.698;9.116;2023-08-12T13:11:49;23.10;99.90
770;DHT22;368;48.698;9.116;2023-08-12T13:14:16;22.90;99.90
770;DHT22;368;48.698;9.116;2023-08-12T13:16:46;22.90;99.90
770;DHT22;368;48.698;9.116;2023-08-12T13:19:13;22.80;99.90
770;DHT22;368;48.698;9.116;2023-08-12T13:21:41;22.90;99.90
770;DHT22;368;48.698;9.116;2023-08-12T13:24:08;22.80;99.90
770;DHT22;368;48.698;9.116;2023-08-12T13:26:35;23.00;99.90
770;DHT22;368;48.698;9.116;2023-08-12T13:29:01;23.10;99.90
770;DHT22;368;48.698;9.116;2023-08-12T13:31:29;23.10;99.90
770;DHT22;368;48.698;9.116;2023-08-12T13:33:55;23.30;99.90
770;DHT22;368;48.698;9.116;2023-08-12T13:36:22;23.30;99.90
770;DHT22;368;48.698;9.116;2023-08-12T13:38:51;23.50;99.90
770;DHT22;368;48.698;9.116;2023-08-12T13:41:17;23.80;99.90
770;DHT22;368;48.698;9.116;2023-08-12T13:43:44;25.00;99.90
770;DHT22;368;48.698;9.116;2023-08-12T13:46:11;25.60;99.90
770;DHT22;368;48.698;9.116;2023-08-12T13:48:38;26.60;99.90
770;DHT22;368;48.698;9.116;2023-08-12T13:51:05;28.20;99.90
770;DHT22;368;48.698;9.116;2023-08-12T13:53:31;28.00;99.90
770;DHT22;368;48.698;9.116;2023-08-12T13:56:00;27.80;99.90
770;DHT22;368;48.698;9.116;2023-08-12T13:58:26;27.30;99.90
770;DHT22;368;48.698;9.116;2023-08-12T14:00:53;27.00;99.90
770;DHT22;368;48.698;9.116;2023-08-12T14:03:20;27.50;99.90
770;DHT22;368;48.698;9.116;2023-08-12T14:05:47;28.60;99.90
770;DHT22;368;48.698;9.116;2023-08-12T14:08:14;29.30;99.90
770;DHT22;368;48.698;9.116;2023-08-12T14:10:41;30.00;99.90
770;DHT22;368;48.698;9.116;2023-08-12T14:13:09;30.00;99.90
770;DHT22;368;48.698;9.116;2023-08-12T14:15:35;31.40;99.00
770;DHT22;368;48.698;9.116;2023-08-12T14:18:03;31.60;98.70
770;DHT22;368;48.698;9.116;2023-08-12T14:20:30;31.60;97.20
770;DHT22;368;48.698;9.116;2023-08-12T14:22:57;31.90;97.30
770;DHT22;368;48.698;9.116;2023-08-12T14:25:24;32.30;95.90
770;DHT22;368;48.698;9.116;2023-08-12T14:27:51;32.30;95.10
770;DHT22;368;48.698;9.116;2023-08-12T14:30:23;32.70;94.00
770;DHT22;368;48.698;9.116;2023-08-12T14:32:50;32.40;94.80
770;DHT22;368;48.698;9.116;2023-08-12T14:35:17;32.30;93.90
770;DHT22;368;48.698;9.116;2023-08-12T14:37:44;32.30;93.40
770;DHT22;368;48.698;9.116;2023-08-12T14:40:11;32.30;93.00
770;DHT22;368;48.698;9.116;2023-08-12T14:42:38;31.60;93.90
770;DHT22;368;48.698;9.116;2023-08-12T14:45:05;31.90;93.00
770;DHT22;368;48.698;9.116;2023-08-12T14:47:33;31.20;93.90
770;DHT22;368;48.698;9.116;2023-08-12T14:50:00;31.10;93.10
770;DHT22;368;48.698;9.116;2023-08-12T14:52:27;31.00;93.30
770;DHT22;368;48.698;9.116;2023-08-12T14:54:54;30.70;95.10
770;DHT22;368;48.698;9.116;2023-08-12T14:57:21;30.60;94.70
770;DHT22;368;48.698;9.116;2023-08-12T14:59:48;29.50;96.50
770;DHT22;368;48.698;9.116;2023-08-12T15:02:16;29.10;97.00
770;DHT22;368;48.698;9.116;2023-08-12T15:04:44;28.90;98.00
770;DHT22;368;48.698;9.116;2023-08-12T15:07:12;28.30;98.90
770;DHT22;368;48.698;9.116;2023-08-12T15:09:39;28.00;99.90
770;DHT22;368;48.698;9.116;2023-08-12T15:12:06;28.10;99.90
770;DHT22;368;48.698;9.116;2023-08-12T15:14:33;28.20;98.40
770;DHT22;368;48.698;9.116;2023-08-12T15:17:00;28.30;98.10
770;DHT22;368;48.698;9.116;2023-08-12T15:19:26;28.20;98.00
770;DHT22;368;48.698;9.116;2023-08-12T15:21:55;28.00;98.80
770;DHT22;368;48.698;9.116;2023-08-12T15:24:21;28.20;98.60
770;DHT22;368;48.698;9.116;2023-08-12T15:26:48;28.30;99.00
770;DHT22;368;48.698;9.116;2023-08-12T15:29:15;27.90;99.10
770;DHT22;368;48.698;9.116;2023-08-12T15:31:42;27.50;99.90
770;DHT22;368;48.698;9.116;2023-08-12T15:34:08;27.10;99.90
770;DHT22;368;48.698;9.116;2023-08-12T15:36:35;27.00;99.90
770;DHT22;368;48.698;9.116;2023-08-12T15:39:04;26.70;99.90
770;DHT22;368;48.698;9.116;2023-08-12T15:41:30;26.50;99.90
770;DHT22;368;48.698;9.116;2023-08-12T15:43:57;26.30;99.90
770;DHT22;368;48.698;9.116;2023-08-12T15:46:24;26.20;99.90
770;DHT22;368;48.698;9.116;2023-08-12T15:48:51;26.00;99.90
770;DHT22;368;48.698;9.116;2023-08-12T15:51:18;25.70;99.90
770;DHT22;368;48.698;9.116;2023-08-12T15:53:44;25.80;99.90
770;DHT22;368;48.698;9.116;2023-08-12T15:56:12;25.90;99.90
770;DHT22;368;48.698;9.116;2023-08-12T15:58:39;25.80;99.90
770;DHT22;368;48.698;9.116;2023-08-12T16:01:06;25.70;99.90
770;DHT22;368;48.698;9.116;2023-08-12T16:03:33;25.40;99.90
770;DHT22;368;48.698;9.116;2023-08-12T16:06:00;25.60;99.90
770;DHT22;368;48.698;9.116;2023-08-12T16:08:28;25.50;99.90
770;DHT22;368;48.698;9.116;2023-08-12T16:10:55;25.40;99.90
770;DHT22;368;48.698;9.116;2023-08-12T16:13:23;25.30;99.90
770;DHT22;368;48.698;9.116;2023-08-12T16:15:50;25.20;99.90
770;DHT22;368;48.698;9.116;2023-08-12T16:18:17;25.10;99.90
770;DHT22;368;48.698;9.116;2023-08-12T16:20:43;24.40;99.90
770;DHT22;368;48.698;9.116;2023-08-12T16:23:10;23.70;99.90
770;DHT22;368;48.698;9.116;2023-08-12T16:25:37;23.00;99.90
770;DHT22;368;48.698;9.116;2023-08-12T16:28:04;22.50;99.90
770;DHT22;368;48.698;9.116;2023-08-12T16:30:32;22.40;99.90
770;DHT22;368;48.698;9.116;2023-08-12T16:32:59;22.40;99.90
770;DHT22;368;48.698;9.116;2023-08-12T16:35:26;22.40;99.90